sensor_id;sensor_type;location;lat;lon;timestamp;pressure;altitude;pressure_sealevel;temperature;humidity
13604;BME280;24578;48.264;11.436;2024-01-07T00:04:56;95324.63;;;1.03;100.00
13604;BME280;24578;48.264;11.436;2024-01-07T00:10:59;95329.63;;;1.05;100.00
13604;BME280;24578;48.264;11.436;2024-01-07T00:17:01;95329.41;;;1.10;100.00
13604;BME280;24578;48.264;11.436;2024-01-07T00:23:03;95325.28;;;1.07;100.00
13604;BME280;24578;48.264;11.436;2024-01-07T00:29:05;95325.88;;;0.95;100.00
13604;BME280;24578;48.264;11.436;2024-01-07T00:35:07;95325.41;;;0.86;100.00
13604;BME280;24578;48.264;11.436;2024-01-07T00:41:08;95330.16;;;0.77;100.00
13604;BME280;24578;48.264;11.436;2024-01-07T00:47:10;95337.28;;;0.70;100.00
13604;BME280;24578;48.264;11.436;2024-01-07T00:53:13;95330.44;;;0.70;100.00
13604;BME280;24578;48.264;11.436;2024-01-07T00:59:14;95333.06;;;0.69;100.00
13604;BME280;24578;48.264;11.436;2024-01-07T01:05:16;95333.63;;;0.56;100.00
13604;BME280;24578;48.264;11.436;2024-01-07T01:11:18;95334.16;;;0.45;100.00
13604;BME280;24578;48.264;11.436;2024-01-07T01:17:19;95340.75;;;0.30;100.00
13604;BME280;24578;48.264;11.436;2024-01-07T01:23:21;95335.81;;;0.27;100.00
13604;BME280;24578;48.264;11.436;2024-01-07T01:29:22;95338.44;;;0.26;100.00
13604;BME280;24578;48.264;11.436;2024-01-07T01:35:24;95342.13;;;0.19;100.00
13604;BME280;24578;48.264;11.436;2024-01-07T01:41:25;95336.50;;;0.12;100.00
13604;BME280;24578;48.264;11.436;2024-01-07T01:47:29;95346.56;;;0.15;100.00
13604;BME280;24578;48.264;11.436;2024-01-07T01:53:32;95333.00;;;0.14;100.00
13604;BME280;24578;48.264;11.436;2024-01-07T01:59:33;95325.56;;;0.10;100.00
13604;BME280;24578;48.264;11.436;2024-01-07T02:05:35;95337.41;;;0.11;100.00
13604;BME280;24578;48.264;11.436;2024-01-07T02:11:37;95340.09;;;0.08;100.00
13604;BME280;24578;48.264;11.436;2024-01-07T02:17:38;95338.28;;;0.10;100.00
13604;BME280;24578;48.264;11.436;2024-01-07T02:23:40;95331.75;;;0.04;100.00
13604;BME280;24578;48.264;11.436;2024-01-07T02:29:42;95326.06;;;-0.01;100.00
13604;BME280;24578;48.264;11.436;2024-01-07T02:35:43;95326.00;;;0.01;100.00
13604;BME280;24578;48.264;11.436;2024-01-07T02:41:45;95326.88;;;-0.01;100.00
13604;BME280;24578;48.264;11.436;2024-01-07T02:47:47;95329.22;;;0.04;100.00
13604;BME280;24578;48.264;11.436;2024-01-07T02:53:49;95322.22;;;0.09;100.00
13604;BME280;24578;48.264;11.436;2024-01-07T02:59:50;95320.97;;;0.18;100.00
13604;BME280;24578;48.264;11.436;2024-01-07T03:05:52;95323.97;;;0.26;100.00
13604;BME280;24578;48.264;11.436;2024-01-07T03:11:54;95321.06;;;0.34;100.00
13604;BME280;24578;48.264;11.436;2024-01-07T03:17:57;95325.75;;;0.43;100.00
13604;BME280;24578;48.264;11.436;2024-01-07T03:23:58;95325.41;;;0.51;100.00
13604;BME280;24578;48.264;11.436;2024-01-07T03:30:00;95326.59;;;0.62;100.00
13604;BME280;24578;48.264;11.436;2024-01-07T03:36:06;95329.69;;;0.68;100.00
13604;BME280;24578;48.264;11.436;2024-01-07T03:42:08;95333.78;;;0.71;100.00
13604;BME280;24578;48.264;11.436;2024-01-07T03:48:13;95342.06;;;0.76;100.00
13604;BME280;24578;48.264;11.436;2024-01-07T03:54:15;95329.94;;;0.81;100.00
13604;BME280;24578;48.264;11.436;2024-01-07T04:00:16;95336.81;;;0.79;100.00
13604;BME280;24578;48.264;11.436;2024-01-07T04:06:18;95337.56;;;0.81;100.00
13604;BME280;24578;48.264;11.436;2024-01-07T04:12:20;95341.03;;;0.80;100.00
13604;BME280;24578;48.264;11.436;2024-01-07T04:18:22;95338.63;;;0.77;100.00
13604;BME280;24578;48.264;11.436;2024-01-07T04:24:24;95340.53;;;0.72;100.00
13604;BME280;24578;48.264;11.436;2024-01-07T04:30:25;95348.13;;;0.73;100.00
13604;BME280;24578;48.264;11.436;2024-01-07T04:36:27;95353.81;;;0.79;100.00
13604;BME280;24578;48.264;11.436;2024-01-07T04:42:29;95361.75;;;0.72;100.00
13604;BME280;24578;48.264;11.436;2024-01-07T04:48:30;95365.88;;;0.75;100.00
13604;BME280;24578;48.264;11.436;2024-01-07T04:54:32;95364.59;;;0.66;100.00
13604;BME280;24578;48.264;11.436;2024-01-07T05:00:36;95371.69;;;0.59;100.00
13604;BME280;24578;48.264;11.436;2024-01-07T05:06:38;95385.09;;;0.63;100.00
13604;BME280;24578;48.264;11.436;2024-01-07T05:12:40;95382.09;;;0.55;100.00
13604;BME280;24578;48.264;11.436;2024-01-07T05:18:42;95392.16;;;0.58;100.00
13604;BME280;24578;48.264;11.436;2024-01-07T05:24:44;95400.00;;;0.53;100.00
13604;BME280;24578;48.264;11.436;2024-01-07T05:30:46;95393.75;;;0.41;100.00
13604;BME280;24578;48.264;11.436;2024-01-07T05:36:48;95401.31;;;0.43;100.00
13604;BME280;24578;48.264;11.436;2024-01-07T05:42:50;95403.19;;;0.39;100.00
13604;BME280;24578;48.264;11.436;2024-01-07T05:48:52;95407.50;;;0.37;100.00
13604;BME280;24578;48.264;11.436;2024-01-07T05:54:53;95412.72;;;0.34;100.00
13604;BME280;24578;48.264;11.436;2024-01-07T06:00:55;95414.16;;;0.40;100.00
13604;BME280;24578;48.264;11.436;2024-01-07T06:06:57;95408.47;;;0.35;100.00
13604;BME280;24578;48.264;11.436;2024-01-07T06:13:00;95420.31;;;0.36;100.00
13604;BME280;24578;48.264;11.436;2024-01-07T06:19:01;95426.22;;;0.36;100.00
13604;BME280;24578;48.264;11.436;2024-01-07T06:25:04;95436.06;;;0.44;100.00
13604;BME280;24578;48.264;11.436;2024-01-07T06:31:07;95431.19;;;0.39;100.00
13604;BME280;24578;48.264;11.436;2024-01-07T06:37:09;95436.94;;;0.24;100.00
13604;BME280;24578;48.264;11.436;2024-01-07T06:43:11;95440.91;;;0.31;100.00
13604;BME280;24578;48.264;11.436;2024-01-07T06:49:13;95441.84;;;0.28;100.00
13604;BME280;24578;48.264;11.436;2024-01-07T06:55:16;95461.84;;;0.17;100.00
13604;BME280;24578;48.264;11.436;2024-01-07T07:01:21;95466.38;;;0.10;100.00
13604;BME280;24578;48.264;11.436;2024-01-07T07:07:24;95467.06;;;0.14;100.00
13604;BME280;24578;48.264;11.436;2024-01-07T07:13:26;95478.78;;;0.18;100.00
13604;BME280;24578;48.264;11.436;2024-01-07T07:19:29;95486.44;;;-0.03;100.00
13604;BME280;24578;48.264;11.436;2024-01-07T07:25:31;95493.38;;;-0.06;100.00
13604;BME280;24578;48.264;11.436;2024-01-07T07:31:32;95496.72;;;-0.06;100.00
13604;BME280;24578;48.264;11.436;2024-01-07T07:37:34;95511.38;;;-0.11;100.00
13604;BME280;24578;48.264;11.436;2024-01-07T07:43:36;95518.16;;;-0.11;100.00
13604;BME280;24578;48.264;11.436;2024-01-07T07:49:37;95520.03;;;-0.15;100.00
13604;BME280;24578;48.264;11.436;2024-01-07T07:55:41;95530.41;;;-0.20;100.00
13604;BME280;24578;48.264;11.436;2024-01-07T08:01:45;95521.59;;;-0.12;100.00
13604;BME280;24578;48.264;11.436;2024-01-07T08:07:47;95532.53;;;-0.10;100.00
13604;BME280;24578;48.264;11.436;2024-01-07T08:13:50;95540.13;;;-0.09;100.00
13604;BME280;24578;48.264;11.436;2024-01-07T08:19:51;95541.91;;;-0.11;100.00
13604;BME280;24578;48.264;11.436;2024-01-07T08:25:55;95551.44;;;-0.16;100.00
13604;BME280;24578;48.264;11.436;2024-01-07T08:31:57;95550.47;;;-0.13;100.00
13604;BME280;24578;48.264;11.436;2024-01-07T08:38:00;95552.84;;;-0.09;100.00
13604;BME280;24578;48.264;11.436;2024-01-07T08:44:01;95567.03;;;-0.03;100.00
13604;BME280;24578;48.264;11.436;2024-01-07T08:50:03;95574.41;;;0.03;100.00
13604;BME280;24578;48.264;11.436;2024-01-07T08:56:05;95572.59;;;0.07;100.00
13604;BME280;24578;48.264;11.436;2024-01-07T09:02:08;95580.66;;;0.17;100.00
13604;BME280;24578;48.264;11.436;2024-01-07T09:08:10;95587.47;;;0.16;100.00
13604;BME280;24578;48.264;11.436;2024-01-07T09:14:12;95592.69;;;0.13;100.00
13604;BME280;24578;48.264;11.436;2024-01-07T09:20:18;95597.56;;;-0.03;100.00
13604;BME280;24578;48.264;11.436;2024-01-07T09:26:19;95609.91;;;0.06;100.00
13604;BME280;24578;48.264;11.436;2024-01-07T09:32:22;95607.13;;;0.12;100.00
13604;BME280;24578;48.264;11.436;2024-01-07T09:38:24;95606.78;;;-0.01;100.00
13604;BME280;24578;48.264;11.436;2024-01-07T09:44:27;95605.97;;;-0.01;100.00
13604;BME280;24578;48.264;11.436;2024-01-07T09:50:28;95608.03;;;0.11;100.00
13604;BME280;24578;48.264;11.436;2024-01-07T09:56:38;95611.00;;;0.01;100.00
13604;BME280;24578;48.264;11.436;2024-01-07T10:02:41;95619.72;;;-0.05;100.00
13604;BME280;24578;48.264;11.436;2024-01-07T10:08:43;95621.06;;;0.04;100.00
13604;BME280;24578;48.264;11.436;2024-01-07T10:14:45;95608.84;;;-0.09;100.00
13604;BME280;24578;48.264;11.436;2024-01-07T10:20:47;95618.22;;;0.11;100.00
13604;BME280;24578;48.264;11.436;2024-01-07T10:26:48;95623.91;;;0.17;100.00
13604;BME280;24578;48.264;11.436;2024-01-07T10:32:55;95619.28;;;0.26;100.00
13604;BME280;24578;48.264;11.436;2024-01-07T10:38:58;95622.22;;;0.38;100.00
13604;BME280;24578;48.264;11.436;2024-01-07T10:45:00;95624.66;;;0.20;100.00
13604;BME280;24578;48.264;11.436;2024-01-07T10:51:02;95634.81;;;0.20;100.00
13604;BME280;24578;48.264;11.436;2024-01-07T11:03:31;95627.06;;;0.23;100.00
13604;BME280;24578;48.264;11.436;2024-01-07T11:16:02;95633.47;;;0.11;100.00
13604;BME280;24578;48.264;11.436;2024-01-07T11:34:51;95637.88;;;-0.14;100.00
13604;BME280;24578;48.264;11.436;2024-01-07T11:40:57;95639.81;;;-0.21;100.00
13604;BME280;24578;48.264;11.436;2024-01-07T11:47:00;95639.19;;;-0.04;100.00
13604;BME280;24578;48.264;11.436;2024-01-07T11:53:02;95636.69;;;-0.06;100.00
13604;BME280;24578;48.264;11.436;2024-01-07T11:59:04;95652.97;;;-0.10;100.00
13604;BME280;24578;48.264;11.436;2024-01-07T12:05:08;95648.88;;;-0.14;100.00
13604;BME280;24578;48.264;11.436;2024-01-07T12:11:14;95644.56;;;-0.12;100.00
13604;BME280;24578;48.264;11.436;2024-01-07T12:17:19;95659.53;;;-0.04;100.00
13604;BME280;24578;48.264;11.436;2024-01-07T12:23:21;95661.94;;;-0.23;100.00
13604;BME280;24578;48.264;11.436;2024-01-07T12:29:24;95654.56;;;-0.29;100.00
13604;BME280;24578;48.264;11.436;2024-01-07T12:35:28;95663.03;;;-0.29;100.00
13604;BME280;24578;48.264;11.436;2024-01-07T12:41:29;95674.75;;;-0.25;100.00
13604;BME280;24578;48.264;11.436;2024-01-07T12:47:31;95676.69;;;-0.32;100.00
13604;BME280;24578;48.264;11.436;2024-01-07T12:53:33;95686.56;;;-0.46;100.00
13604;BME280;24578;48.264;11.436;2024-01-07T12:59:34;95692.81;;;-0.55;100.00
13604;BME280;24578;48.264;11.436;2024-01-07T13:05:36;95700.38;;;-0.53;100.00
13604;BME280;24578;48.264;11.436;2024-01-07T13:11:38;95712.09;;;-0.49;100.00
13604;BME280;24578;48.264;11.436;2024-01-07T13:17:40;95713.97;;;-0.54;100.00
13604;BME280;24578;48.264;11.436;2024-01-07T13:23:42;95716.66;;;-0.57;100.00
13604;BME280;24578;48.264;11.436;2024-01-07T13:29:45;95720.84;;;-0.56;100.00
13604;BME280;24578;48.264;11.436;2024-01-07T13:35:48;95724.81;;;-0.49;100.00
13604;BME280;24578;48.264;11.436;2024-01-07T13:41:50;95732.16;;;-0.65;100.00
13604;BME280;24578;48.264;11.436;2024-01-07T13:47:52;95742.28;;;-0.64;100.00
13604;BME280;24578;48.264;11.436;2024-01-07T13:53:54;95743.50;;;-0.74;100.00
13604;BME280;24578;48.264;11.436;2024-01-07T13:59:56;95754.19;;;-0.89;100.00
13604;BME280;24578;48.264;11.436;2024-01-07T14:05:57;95764.00;;;-0.79;100.00
13604;BME280;24578;48.264;11.436;2024-01-07T14:12:00;95758.28;;;-0.85;100.00
13604;BME280;24578;48.264;11.436;2024-01-07T14:18:01;95762.13;;;-0.99;100.00
13604;BME280;24578;48.264;11.436;2024-01-07T14:24:03;95770.09;;;-0.84;100.00
13604;BME280;24578;48.264;11.436;2024-01-07T14:30:06;95782.75;;;-1.08;100.00
13604;BME280;24578;48.264;11.436;2024-01-07T14:36:09;95793.91;;;-1.12;100.00
13604;BME280;24578;48.264;11.436;2024-01-07T14:42:17;95797.22;;;-1.10;100.00
13604;BME280;24578;48.264;11.436;2024-01-07T14:48:20;95797.03;;;-1.04;100.00
13604;BME280;24578;48.264;11.436;2024-01-07T14:54:23;95813.41;;;-1.13;100.00
13604;BME280;24578;48.264;11.436;2024-01-07T15:00:25;95815.25;;;-1.18;100.00
13604;BME280;24578;48.264;11.436;2024-01-07T15:06:26;95819.31;;;-1.12;100.00
13604;BME280;24578;48.264;11.436;2024-01-07T15:12:33;95828.28;;;-1.29;100.00
13604;BME280;24578;48.264;11.436;2024-01-07T15:18:41;95839.09;;;-1.22;100.00
13604;BME280;24578;48.264;11.436;2024-01-07T15:24:43;95834.84;;;-1.21;100.00
13604;BME280;24578;48.264;11.436;2024-01-07T15:30:47;95850.19;;;-1.25;100.00
13604;BME280;24578;48.264;11.436;2024-01-07T15:36:49;95851.13;;;-1.27;100.00
13604;BME280;24578;48.264;11.436;2024-01-07T15:42:52;95860.59;;;-1.32;100.00
13604;BME280;24578;48.264;11.436;2024-01-07T15:48:55;95863.03;;;-1.29;100.00
13604;BME280;24578;48.264;11.436;2024-01-07T15:54:59;95873.50;;;-1.40;100.00
13604;BME280;24578;48.264;11.436;2024-01-07T16:01:03;95885.44;;;-1.42;100.00
13604;BME280;24578;48.264;11.436;2024-01-07T16:07:06;95888.19;;;-1.50;100.00
13604;BME280;24578;48.264;11.436;2024-01-07T16:13:08;95899.13;;;-1.48;100.00
13604;BME280;24578;48.264;11.436;2024-01-07T16:19:10;95906.25;;;-1.59;100.00
13604;BME280;24578;48.264;11.436;2024-01-07T16:25:12;95914.50;;;-1.52;100.00
13604;BME280;24578;48.264;11.436;2024-01-07T16:31:16;95929.84;;;-1.56;100.00
13604;BME280;24578;48.264;11.436;2024-01-07T16:37:18;95931.06;;;-1.69;100.00
13604;BME280;24578;48.264;11.436;2024-01-07T16:43:21;95937.22;;;-1.78;100.00
13604;BME280;24578;48.264;11.436;2024-01-07T16:49:23;95945.56;;;-1.73;100.00
13604;BME280;24578;48.264;11.436;2024-01-07T16:55:27;95947.09;;;-1.67;100.00
13604;BME280;24578;48.264;11.436;2024-01-07T17:01:29;95951.22;;;-1.64;100.00
13604;BME280;24578;48.264;11.436;2024-01-07T17:07:31;95954.63;;;-1.64;100.00
13604;BME280;24578;48.264;11.436;2024-01-07T17:13:35;95963.78;;;-1.60;100.00
13604;BME280;24578;48.264;11.436;2024-01-07T17:19:38;95969.66;;;-1.58;100.00
13604;BME280;24578;48.264;11.436;2024-01-07T17:25:40;95971.59;;;-1.66;100.00
13604;BME280;24578;48.264;11.436;2024-01-07T17:31:44;95984.50;;;-1.74;100.00
13604;BME280;24578;48.264;11.436;2024-01-07T17:37:46;95987.78;;;-1.70;100.00
13604;BME280;24578;48.264;11.436;2024-01-07T17:43:48;95992.78;;;-1.67;100.00
13604;BME280;24578;48.264;11.436;2024-01-07T17:49:50;95998.13;;;-1.78;100.00
13604;BME280;24578;48.264;11.436;2024-01-07T17:55:51;96002.13;;;-1.69;100.00
13604;BME280;24578;48.264;11.436;2024-01-07T18:01:55;96016.72;;;-1.77;100.00
13604;BME280;24578;48.264;11.436;2024-01-07T18:07:57;96028.00;;;-1.88;100.00
13604;BME280;24578;48.264;11.436;2024-01-07T18:14:01;96034.88;;;-1.93;100.00
13604;BME280;24578;48.264;11.436;2024-01-07T18:20:04;96039.28;;;-2.00;100.00
13604;BME280;24578;48.264;11.436;2024-01-07T18:26:05;96044.41;;;-2.01;100.00
13604;BME280;24578;48.264;11.436;2024-01-07T18:32:08;96051.81;;;-1.93;100.00
13604;BME280;24578;48.264;11.436;2024-01-07T18:38:11;96058.56;;;-1.92;100.00
13604;BME280;24578;48.264;11.436;2024-01-07T18:44:13;96067.38;;;-2.06;100.00
13604;BME280;24578;48.264;11.436;2024-01-07T18:50:15;96072.59;;;-2.12;100.00
13604;BME280;24578;48.264;11.436;2024-01-07T18:56:20;96075.16;;;-2.13;100.00
13604;BME280;24578;48.264;11.436;2024-01-07T19:02:22;96071.78;;;-2.14;100.00
13604;BME280;24578;48.264;11.436;2024-01-07T19:08:27;96079.66;;;-2.25;100.00
13604;BME280;24578;48.264;11.436;2024-01-07T19:14:28;96078.06;;;-2.29;100.00
13604;BME280;24578;48.264;11.436;2024-01-07T19:20:35;96089.16;;;-2.33;100.00
13604;BME280;24578;48.264;11.436;2024-01-07T19:26:37;96107.28;;;-2.50;100.00
13604;BME280;24578;48.264;11.436;2024-01-07T19:32:42;96109.16;;;-2.58;100.00
13604;BME280;24578;48.264;11.436;2024-01-07T19:38:47;96121.13;;;-2.65;100.00
13604;BME280;24578;48.264;11.436;2024-01-07T19:44:49;96134.16;;;-2.82;100.00
13604;BME280;24578;48.264;11.436;2024-01-07T19:50:51;96142.53;;;-2.79;100.00
13604;BME280;24578;48.264;11.436;2024-01-07T19:56:53;96143.00;;;-3.02;100.00
13604;BME280;24578;48.264;11.436;2024-01-07T20:02:54;96144.00;;;-3.11;100.00
13604;BME280;24578;48.264;11.436;2024-01-07T20:08:58;96155.09;;;-3.16;100.00
13604;BME280;24578;48.264;11.436;2024-01-07T20:15:00;96169.28;;;-3.08;100.00
13604;BME280;24578;48.264;11.436;2024-01-07T20:21:02;96165.03;;;-3.07;100.00
13604;BME280;24578;48.264;11.436;2024-01-07T20:27:04;96168.88;;;-3.30;100.00
13604;BME280;24578;48.264;11.436;2024-01-07T20:33:07;96177.28;;;-3.29;100.00
13604;BME280;24578;48.264;11.436;2024-01-07T20:39:15;96187.44;;;-3.32;100.00
13604;BME280;24578;48.264;11.436;2024-01-07T20:45:17;96189.34;;;-3.44;100.00
13604;BME280;24578;48.264;11.436;2024-01-07T20:51:21;96191.66;;;-3.31;100.00
13604;BME280;24578;48.264;11.436;2024-01-07T20:57:25;96186.84;;;-3.45;100.00
13604;BME280;24578;48.264;11.436;2024-01-07T21:03:27;96195.41;;;-3.51;100.00
13604;BME280;24578;48.264;11.436;2024-01-07T21:09:29;96195.34;;;-3.49;100.00
13604;BME280;24578;48.264;11.436;2024-01-07T21:15:32;96199.78;;;-3.61;100.00
13604;BME280;24578;48.264;11.436;2024-01-07T21:21:35;96202.19;;;-3.53;100.00
13604;BME280;24578;48.264;11.436;2024-01-07T21:27:38;96205.59;;;-3.57;100.00
13604;BME280;24578;48.264;11.436;2024-01-07T21:33:39;96208.09;;;-3.54;100.00
13604;BME280;24578;48.264;11.436;2024-01-07T21:39:41;96213.84;;;-3.46;100.00
13604;BME280;24578;48.264;11.436;2024-01-07T21:45:46;96213.16;;;-3.54;100.00
13604;BME280;24578;48.264;11.436;2024-01-07T21:51:50;96218.25;;;-3.57;100.00
13604;BME280;24578;48.264;11.436;2024-01-07T21:57:53;96221.56;;;-3.54;100.00
13604;BME280;24578;48.264;11.436;2024-01-07T22:03:56;96222.47;;;-3.58;100.00
13604;BME280;24578;48.264;11.436;2024-01-07T22:09:58;96226.31;;;-3.35;100.00
13604;BME280;24578;48.264;11.436;2024-01-07T22:16:03;96228.09;;;-3.39;100.00
13604;BME280;24578;48.264;11.436;2024-01-07T22:22:04;96237.56;;;-3.52;100.00
13604;BME280;24578;48.264;11.436;2024-01-07T22:28:06;96233.22;;;-3.43;100.00
13604;BME280;24578;48.264;11.436;2024-01-07T22:34:09;96233.44;;;-3.57;100.00
13604;BME280;24578;48.264;11.436;2024-01-07T22:40:10;96235.97;;;-3.57;100.00
13604;BME280;24578;48.264;11.436;2024-01-07T22:46:12;96243.66;;;-3.62;100.00
13604;BME280;24578;48.264;11.436;2024-01-07T22:52:15;96244.63;;;-3.71;100.00
13604;BME280;24578;48.264;11.436;2024-01-07T22:58:19;96251.59;;;-3.87;100.00
13604;BME280;24578;48.264;11.436;2024-01-07T23:04:21;96248.09;;;-3.76;100.00
13604;BME280;24578;48.264;11.436;2024-01-07T23:10:23;96254.72;;;-3.68;100.00
13604;BME280;24578;48.264;11.436;2024-01-07T23:16:25;96262.47;;;-3.80;100.00
13604;BME280;24578;48.264;11.436;2024-01-07T23:22:28;96261.19;;;-4.07;100.00
13604;BME280;24578;48.264;11.436;2024-01-07T23:28:29;96282.50;;;-4.27;100.00
13604;BME280;24578;48.264;11.436;2024-01-07T23:34:33;96285.28;;;-4.47;100.00
13604;BME280;24578;48.264;11.436;2024-01-07T23:40:34;96285.38;;;-4.55;100.00
13604;BME280;24578;48.264;11.436;2024-01-07T23:46:36;96294.84;;;-4.74;100.00
13604;BME280;24578;48.264;11.436;2024-01-07T23:52:40;96294.94;;;-4.83;100.00
13604;BME280;24578;48.264;11.436;2024-01-07T23:58:42;96306.81;;;-4.93;100.00
